createdAt,value
2018-10-18T00:00:06.213Z,99.05
2018-10-18T00:02:35.016Z,99.59
2018-10-18T00:05:03.566Z,99.51
2018-10-18T00:07:32.214Z,97.46
2018-10-18T00:10:00.952Z,97.03
2018-10-18T00:12:29.645Z,98.21
2018-10-18T00:14:58.466Z,98.04
2018-10-18T00:17:32.317Z,96.87
2018-10-18T00:20:00.946Z,97.30
2018-10-18T00:22:29.659Z,98.81
2018-10-18T00:24:58.336Z,98.63
2018-10-18T00:27:26.895Z,99.17
2018-10-18T00:29:55.630Z,98.84
2018-10-18T00:32:25.256Z,96.61
2018-10-18T00:34:53.789Z,95.21
2018-10-18T00:37:22.492Z,95.13
2018-10-18T00:39:51.506Z,95.43
2018-10-18T00:42:21.254Z,98.06
2018-10-18T00:44:49.910Z,100.00
2018-10-18T00:47:18.492Z,100.00
2018-10-18T00:49:47.195Z,100.00
2018-10-18T00:52:17.130Z,100.00
2018-10-18T00:54:45.762Z,100.00
2018-10-18T00:57:14.512Z,99.72
2018-10-18T00:59:43.073Z,99.88
2018-10-18T01:02:11.714Z,100.00
2018-10-18T01:04:40.334Z,100.00
2018-10-18T01:07:08.973Z,100.00
2018-10-18T01:09:37.514Z,100.00
2018-10-18T01:12:06.262Z,100.00
2018-10-18T01:14:34.911Z,100.00
2018-10-18T01:17:04.338Z,100.00
2018-10-18T01:19:35.376Z,100.00
2018-10-18T01:22:05.381Z,100.00
2018-10-18T01:24:34.502Z,98.93
2018-10-18T01:27:04.430Z,98.62
2018-10-18T01:29:33.057Z,98.07
2018-10-18T01:32:01.785Z,96.69
2018-10-18T01:34:31.381Z,97.73
2018-10-18T01:36:59.983Z,100.00
2018-10-18T01:39:30.480Z,100.00
2018-10-18T01:42:00.054Z,100.00
2018-10-18T01:44:28.668Z,100.00
2018-10-18T01:46:57.200Z,100.00
2018-10-18T01:49:25.794Z,100.00
2018-10-18T01:51:55.090Z,100.00
2018-10-18T01:54:23.669Z,100.00
2018-10-18T01:56:52.110Z,100.00
2018-10-18T01:59:20.698Z,98.72
2018-10-18T02:01:50.273Z,99.71
2018-10-18T02:04:19.773Z,100.00
2018-10-18T02:06:48.523Z,100.00
2018-10-18T02:09:17.257Z,100.00
2018-10-18T02:11:45.874Z,100.00
2018-10-18T02:14:14.469Z,100.00
2018-10-18T02:16:43.011Z,100.00
2018-10-18T02:19:12.200Z,100.00
2018-10-18T02:21:42.822Z,100.00
2018-10-18T02:24:11.538Z,100.00
2018-10-18T02:26:40.185Z,100.00
2018-10-18T02:29:08.698Z,100.00
2018-10-18T02:31:37.347Z,100.00
2018-10-18T02:34:05.897Z,100.00
2018-10-18T02:36:34.582Z,100.00
2018-10-18T02:39:04.461Z,99.68
2018-10-18T02:41:32.955Z,96.52
2018-10-18T02:44:01.458Z,96.01
2018-10-18T02:46:30.146Z,96.38
2018-10-18T02:48:58.899Z,97.11
2018-10-18T02:51:27.476Z,95.76
2018-10-18T02:53:56.039Z,96.17
2018-10-18T02:56:24.805Z,97.21
2018-10-18T02:58:53.382Z,99.47
2018-10-18T03:01:21.913Z,99.04
2018-10-18T03:03:50.616Z,98.63
2018-10-18T03:06:19.299Z,96.20
2018-10-18T03:08:48.886Z,95.24
2018-10-18T03:11:17.426Z,95.80
2018-10-18T03:13:45.955Z,96.52
2018-10-18T03:16:14.791Z,98.85
2018-10-18T03:18:43.287Z,99.59
2018-10-18T03:21:12.885Z,100.00
2018-10-18T03:23:41.722Z,100.00
2018-10-18T03:26:11.327Z,100.00
2018-10-18T03:28:40.018Z,100.00
2018-10-18T03:31:08.488Z,100.00
2018-10-18T03:33:37.050Z,100.00
2018-10-18T03:36:06.147Z,100.00
2018-10-18T03:38:34.754Z,100.00
2018-10-18T03:41:03.523Z,100.00
2018-10-18T03:43:32.294Z,100.00
2018-10-18T03:46:00.937Z,100.00
2018-10-18T03:48:30.255Z,100.00
2018-10-18T03:50:59.814Z,100.00
2018-10-18T03:53:28.786Z,100.00
2018-10-18T03:55:57.390Z,100.00
2018-10-18T03:58:26.268Z,100.00
2018-10-18T04:00:54.860Z,100.00
2018-10-18T04:03:23.550Z,100.00
2018-10-18T04:05:52.227Z,100.00
2018-10-18T04:08:20.839Z,100.00
2018-10-18T04:10:49.493Z,100.00
2018-10-18T04:13:18.034Z,100.00
2018-10-18T04:15:46.777Z,100.00
2018-10-18T04:18:15.456Z,100.00
2018-10-18T04:20:44.141Z,100.00
2018-10-18T04:23:12.809Z,100.00
2018-10-18T04:25:41.493Z,100.00
2018-10-18T04:28:10.226Z,100.00
2018-10-18T04:30:39.010Z,100.00
2018-10-18T04:33:07.539Z,100.00
2018-10-18T04:35:36.107Z,100.00
2018-10-18T04:38:04.728Z,100.00
2018-10-18T04:40:33.250Z,100.00
2018-10-18T04:43:01.945Z,100.00
2018-10-18T04:45:31.447Z,100.00
2018-10-18T04:48:00.146Z,100.00
2018-10-18T04:50:28.549Z,100.00
2018-10-18T04:52:57.407Z,100.00
2018-10-18T04:55:26.030Z,100.00
2018-10-18T04:57:54.625Z,100.00
2018-10-18T05:00:23.198Z,100.00
2018-10-18T05:02:52.049Z,100.00
2018-10-18T05:05:31.838Z,100.00
2018-10-18T05:08:00.416Z,100.00
2018-10-18T05:10:28.939Z,100.00
2018-10-18T05:12:57.610Z,100.00
2018-10-18T05:15:26.318Z,100.00
2018-10-18T05:17:55.030Z,100.00
2018-10-18T05:20:23.706Z,100.00
2018-10-18T05:22:52.242Z,100.00
2018-10-18T05:25:20.774Z,100.00
2018-10-18T05:27:49.288Z,100.00
2018-10-18T05:30:17.852Z,100.00
2018-10-18T05:32:46.905Z,100.00
2018-10-18T05:35:15.392Z,100.00
2018-10-18T05:37:44.114Z,100.00
2018-10-18T05:40:13.665Z,100.00
2018-10-18T05:42:42.163Z,100.00
2018-10-18T05:45:10.722Z,100.00
2018-10-18T05:47:39.613Z,100.00
2018-10-18T05:50:08.847Z,100.00
2018-10-18T05:52:37.506Z,100.00
2018-10-18T05:55:07.384Z,100.00
2018-10-18T05:57:35.930Z,100.00
2018-10-18T06:00:07.040Z,100.00
2018-10-18T06:02:35.634Z,100.00
2018-10-18T06:05:04.498Z,100.00
2018-10-18T06:07:32.983Z,100.00
2018-10-18T06:10:01.767Z,100.00
2018-10-18T06:12:30.170Z,100.00
2018-10-18T06:14:58.841Z,100.00
2018-10-18T06:17:27.370Z,100.00
2018-10-18T06:19:55.945Z,100.00
2018-10-18T06:22:24.530Z,100.00
2018-10-18T06:24:55.085Z,100.00
2018-10-18T06:27:23.679Z,100.00
2018-10-18T06:29:52.228Z,100.00
2018-10-18T06:32:20.889Z,100.00
2018-10-18T06:34:49.567Z,100.00
2018-10-18T06:37:18.190Z,100.00
2018-10-18T06:39:46.775Z,100.00
2018-10-18T06:42:15.397Z,100.00
2018-10-18T06:44:43.955Z,100.00
2018-10-18T06:47:12.713Z,100.00
2018-10-18T06:49:42.432Z,100.00
2018-10-18T06:52:11.063Z,100.00
2018-10-18T06:54:40.555Z,100.00
2018-10-18T06:57:09.297Z,100.00
2018-10-18T06:59:38.611Z,100.00
2018-10-18T07:02:08.172Z,100.00
2018-10-18T07:04:36.912Z,100.00
2018-10-18T07:07:05.852Z,100.00
2018-10-18T07:09:34.467Z,99.35
2018-10-18T07:12:03.159Z,99.45
2018-10-18T07:14:32.742Z,98.58
2018-10-18T07:17:01.554Z,99.19
2018-10-18T07:19:30.105Z,100.00
2018-10-18T07:21:58.616Z,100.00
2018-10-18T07:24:27.490Z,100.00
2018-10-18T07:26:56.290Z,100.00
2018-10-18T07:29:25.870Z,100.00
2018-10-18T07:31:54.669Z,100.00
2018-10-18T07:34:23.242Z,100.00
2018-10-18T07:36:52.146Z,100.00
2018-10-18T07:39:20.793Z,100.00
2018-10-18T07:41:49.463Z,100.00
2018-10-18T07:44:18.046Z,100.00
2018-10-18T07:46:46.833Z,100.00
2018-10-18T07:49:15.435Z,100.00
2018-10-18T07:51:44.105Z,100.00
2018-10-18T07:54:12.921Z,100.00
2018-10-18T07:56:41.722Z,100.00
2018-10-18T07:59:10.388Z,100.00
2018-10-18T08:01:38.865Z,100.00
2018-10-18T08:04:07.401Z,100.00
2018-10-18T08:06:35.990Z,100.00
2018-10-18T08:09:06.833Z,100.00
2018-10-18T08:11:35.435Z,100.00
2018-10-18T08:14:04.174Z,100.00
2018-10-18T08:16:32.646Z,100.00
2018-10-18T08:19:01.731Z,100.00
2018-10-18T08:21:30.353Z,100.00
2018-10-18T08:23:59.111Z,100.00
2018-10-18T08:26:28.788Z,100.00
2018-10-18T08:28:57.341Z,99.20
2018-10-18T08:31:26.266Z,98.46
2018-10-18T08:33:54.827Z,97.75
2018-10-18T08:36:23.803Z,97.19
2018-10-18T08:38:52.499Z,96.78
2018-10-18T08:41:21.125Z,94.66
2018-10-18T08:43:49.894Z,94.86
2018-10-18T08:46:18.771Z,93.93
2018-10-18T08:48:49.377Z,93.29
2018-10-18T09:31:30.261Z,77.90
2018-10-18T09:34:00.279Z,77.97
2018-10-18T09:36:29.158Z,77.22
2018-10-18T09:38:57.890Z,77.70
2018-10-18T09:41:26.526Z,77.53
2018-10-18T09:44:02.530Z,74.78
2018-10-18T09:46:31.979Z,73.47
2018-10-18T09:49:00.904Z,72.79
2018-10-18T09:51:29.744Z,73.10
2018-10-18T09:53:58.942Z,71.29
2018-10-18T09:56:27.584Z,71.53
2018-10-18T09:58:56.213Z,71.27
2018-10-18T10:01:31.894Z,70.26
2018-10-18T10:04:02.455Z,70.91
2018-10-18T10:06:31.349Z,70.74
2018-10-18T10:09:00.110Z,70.16
2018-10-18T10:11:29.168Z,69.42
2018-10-18T10:13:57.806Z,69.47
2018-10-18T10:16:26.542Z,68.33
2018-10-18T10:18:55.430Z,67.27
2018-10-18T10:21:24.168Z,67.35
2018-10-18T10:23:52.702Z,67.76
2018-10-18T10:26:21.393Z,66.78
2018-10-18T10:28:50.153Z,67.44
2018-10-18T10:31:19.003Z,66.70
2018-10-18T10:33:48.041Z,66.53
2018-10-18T10:36:16.605Z,66.65
2018-10-18T10:38:45.139Z,66.55
2018-10-18T10:41:14.071Z,66.50
2018-10-18T10:43:42.657Z,66.27
2018-10-18T10:46:11.461Z,66.37
2018-10-18T10:48:39.932Z,65.26
2018-10-18T10:51:09.571Z,65.75
2018-10-18T10:53:38.371Z,66.00
2018-10-18T10:56:07.080Z,65.60
2018-10-18T10:58:35.849Z,64.72
2018-10-18T11:01:09.071Z,64.95
2018-10-18T11:03:38.644Z,64.49
2018-10-18T11:06:07.404Z,64.27
2018-10-18T11:08:36.123Z,63.72
2018-10-18T11:11:05.071Z,63.02
2018-10-18T11:13:33.790Z,62.54
2018-10-18T11:16:03.400Z,60.55
2018-10-18T11:18:33.314Z,57.88
2018-10-18T11:21:03.543Z,55.67
2018-10-18T11:23:33.771Z,54.21
2018-10-18T11:26:03.759Z,52.81
2018-10-18T11:28:32.365Z,51.49
2018-10-18T11:31:01.008Z,52.15
2018-10-18T11:33:29.638Z,51.37
2018-10-18T11:35:58.408Z,51.18
2018-10-18T11:38:30.917Z,49.98
2018-10-18T11:40:59.522Z,48.58
2018-10-18T11:43:28.252Z,45.99
2018-10-18T11:45:56.864Z,44.64
2018-10-18T11:48:25.552Z,44.26
2018-10-18T11:50:54.133Z,43.27
2018-10-18T11:53:22.777Z,44.17
2018-10-18T11:55:51.550Z,44.21
2018-10-18T11:58:20.125Z,44.38
2018-10-18T12:00:49.082Z,43.93
2018-10-18T12:03:17.770Z,42.69
2018-10-18T12:05:46.357Z,41.55
2018-10-18T12:08:15.050Z,39.91
2018-10-18T12:10:43.583Z,39.27
2018-10-18T12:13:12.339Z,38.48
2018-10-18T12:15:41.073Z,39.60
2018-10-18T12:18:10.295Z,38.48
2018-10-18T12:20:38.897Z,38.35
2018-10-18T12:23:07.480Z,37.71
2018-10-18T12:25:36.186Z,38.29
2018-10-18T12:28:04.859Z,38.91
2018-10-18T12:30:33.453Z,39.04
2018-10-18T12:33:02.102Z,38.33
2018-10-18T12:35:30.873Z,38.00
2018-10-18T12:37:59.939Z,38.49
2018-10-18T12:40:29.361Z,39.23
2018-10-18T12:42:59.022Z,37.85
2018-10-18T12:45:27.870Z,38.05
2018-10-18T12:47:56.677Z,37.50
2018-10-18T12:50:25.455Z,36.93
2018-10-18T12:52:55.053Z,37.07
2018-10-18T12:55:23.564Z,38.27
2018-10-18T12:57:52.217Z,38.39
2018-10-18T13:00:21.570Z,37.61
2018-10-18T13:02:50.238Z,37.47
2018-10-18T13:05:19.016Z,36.45
2018-10-18T13:07:47.813Z,36.85
2018-10-18T13:10:16.397Z,38.27
2018-10-18T13:12:47.379Z,38.74
2018-10-18T13:15:16.834Z,39.03
2018-10-18T13:17:46.583Z,39.03
2018-10-18T13:20:15.629Z,39.32
2018-10-18T13:22:44.292Z,38.02
2018-10-18T13:25:13.094Z,38.70
2018-10-18T13:27:42.025Z,41.24
2018-10-18T13:30:11.645Z,42.53
2018-10-18T13:32:40.868Z,42.45
2018-10-18T13:35:10.002Z,43.25
2018-10-18T13:37:38.785Z,44.07
2018-10-18T13:40:08.019Z,42.78
2018-10-18T13:42:36.762Z,40.33
2018-10-18T13:45:06.205Z,39.82
2018-10-18T13:47:35.203Z,38.57
2018-10-18T13:50:05.275Z,37.78
2018-10-18T13:52:33.929Z,37.97
2018-10-18T13:55:03.545Z,38.94
2018-10-18T13:57:32.332Z,39.31
2018-10-18T14:00:25.585Z,40.09
2018-10-18T14:02:55.130Z,42.71
2018-10-18T14:05:25.011Z,41.99
2018-10-18T14:07:54.561Z,41.60
2018-10-18T14:10:23.294Z,41.51
2018-10-18T14:12:52.542Z,40.94
2018-10-18T14:15:21.272Z,41.10
2018-10-18T14:17:50.022Z,40.79
2018-10-18T14:20:18.906Z,41.27
2018-10-18T14:22:47.551Z,41.79
2018-10-18T14:25:16.269Z,41.53
2018-10-18T14:27:45.008Z,41.83
2018-10-18T14:30:14.059Z,41.90
2018-10-18T14:32:43.601Z,42.66
2018-10-18T14:35:13.216Z,43.43
2018-10-18T14:37:41.856Z,44.08
2018-10-18T14:40:11.854Z,43.89
2018-10-18T14:42:40.476Z,43.13
2018-10-18T14:45:09.843Z,43.02
2018-10-18T14:47:38.443Z,42.82
2018-10-18T14:50:09.764Z,43.01
2018-10-18T14:52:38.556Z,43.59
2018-10-18T14:55:07.207Z,44.41
2018-10-18T14:57:35.921Z,44.76
2018-10-18T15:00:04.838Z,45.87
2018-10-18T15:02:33.494Z,46.96
2018-10-18T15:05:02.268Z,47.84
2018-10-18T15:07:31.710Z,49.74
2018-10-18T15:10:00.247Z,49.88
2018-10-18T15:12:28.934Z,50.48
2018-10-18T15:14:57.538Z,51.69
2018-10-18T15:17:27.216Z,52.62
2018-10-18T15:19:56.821Z,53.36
2018-10-18T15:22:25.809Z,53.78
2018-10-18T15:24:55.962Z,54.94
2018-10-18T15:27:24.820Z,55.37
2018-10-18T15:29:53.434Z,55.63
2018-10-18T15:32:22.088Z,57.02
2018-10-18T15:34:50.943Z,57.80
2018-10-18T15:37:19.854Z,58.41
2018-10-18T15:39:48.400Z,58.63
2018-10-18T15:42:17.013Z,59.84
2018-10-18T15:44:45.849Z,60.42
2018-10-18T15:47:14.953Z,61.55
2018-10-18T15:49:43.526Z,61.99
2018-10-18T15:52:12.182Z,62.49
2018-10-18T15:54:41.782Z,63.14
2018-10-18T15:57:10.429Z,63.09
2018-10-18T15:59:39.178Z,63.80
2018-10-18T16:02:07.800Z,64.42
2018-10-18T16:04:36.472Z,64.95
2018-10-18T16:07:05.299Z,65.09
2018-10-18T16:09:33.831Z,65.73
2018-10-18T16:12:02.563Z,66.39
2018-10-18T16:14:31.105Z,66.70
2018-10-18T16:16:59.974Z,67.25
2018-10-18T16:19:28.656Z,67.54
2018-10-18T16:21:57.292Z,68.05
2018-10-18T16:24:26.114Z,68.36
2018-10-18T16:26:54.577Z,68.18
2018-10-18T16:29:23.262Z,68.99
2018-10-18T16:31:51.878Z,68.97
2018-10-18T16:34:20.721Z,69.30
2018-10-18T16:36:50.388Z,69.46
2018-10-18T16:39:19.177Z,70.02
2018-10-18T16:41:47.916Z,70.16
2018-10-18T16:44:16.717Z,71.45
2018-10-18T16:46:45.186Z,72.07
2018-10-18T16:49:14.545Z,72.54
2018-10-18T16:51:43.118Z,72.88
2018-10-18T16:54:12.020Z,73.30
2018-10-18T16:56:40.494Z,72.92
2018-10-18T16:59:09.241Z,73.43
2018-10-18T17:01:38.111Z,74.40
2018-10-18T17:04:07.201Z,74.31
2018-10-18T17:06:35.778Z,73.51
2018-10-18T17:09:06.247Z,73.90
2018-10-18T17:11:35.161Z,74.96
2018-10-18T17:14:03.901Z,76.21
2018-10-18T17:16:32.862Z,77.17
2018-10-18T17:19:01.624Z,78.88
2018-10-18T17:21:30.195Z,79.63
2018-10-18T17:23:59.015Z,80.26
2018-10-18T17:26:27.748Z,80.78
2018-10-18T17:28:56.475Z,81.62
2018-10-18T17:31:25.006Z,82.34
2018-10-18T17:33:54.811Z,82.13
2018-10-18T17:36:23.721Z,82.68
2018-10-18T17:38:52.483Z,83.04
2018-10-18T17:41:21.157Z,83.25
2018-10-18T17:43:49.747Z,82.70
2018-10-18T17:46:18.456Z,81.29
2018-10-18T17:48:46.997Z,80.84
2018-10-18T17:51:15.707Z,80.12
2018-10-18T17:53:45.556Z,79.82
2018-10-18T17:56:14.488Z,80.32
2018-10-18T17:58:43.058Z,80.86
2018-10-18T18:01:11.966Z,81.45
2018-10-18T18:03:40.643Z,82.50
2018-10-18T18:06:09.570Z,82.83
2018-10-18T18:08:38.390Z,82.75
2018-10-18T18:11:06.955Z,85.06
2018-10-18T18:13:35.690Z,86.33
2018-10-18T18:16:04.561Z,88.02
2018-10-18T18:18:33.533Z,88.61
2018-10-18T18:21:02.361Z,87.88
2018-10-18T18:23:31.005Z,87.23
2018-10-18T18:26:00.815Z,87.22
2018-10-18T18:28:29.406Z,87.47
2018-10-18T18:30:58.204Z,86.57
2018-10-18T18:33:26.947Z,87.30
2018-10-18T18:35:55.590Z,87.47
2018-10-18T18:38:24.331Z,86.69
2018-10-18T18:40:52.996Z,86.57
2018-10-18T18:43:21.732Z,85.77
2018-10-18T18:45:50.500Z,87.94
2018-10-18T18:48:19.050Z,89.96
2018-10-18T18:50:48.576Z,90.83
2018-10-18T18:53:17.444Z,91.32
2018-10-18T18:55:46.179Z,93.80
2018-10-18T18:58:14.876Z,94.38
2018-10-18T19:00:45.525Z,95.23
2018-10-18T19:03:15.425Z,96.11
2018-10-18T19:05:44.485Z,97.27
2018-10-18T19:08:14.912Z,96.98
2018-10-18T19:10:43.468Z,96.52
2018-10-18T19:13:12.290Z,95.01
2018-10-18T19:15:41.159Z,94.81
2018-10-18T19:18:09.779Z,95.83
2018-10-18T19:20:38.350Z,96.37
2018-10-18T19:23:06.935Z,97.35
2018-10-18T19:25:35.680Z,97.84
2018-10-18T19:28:05.273Z,96.45
2018-10-18T19:30:33.886Z,95.66
2018-10-18T19:33:02.571Z,92.87
2018-10-18T19:35:31.201Z,91.95
2018-10-18T19:38:00.053Z,93.73
2018-10-18T19:40:29.210Z,96.16
2018-10-18T19:42:58.055Z,97.48
2018-10-18T19:45:27.002Z,98.51
2018-10-18T19:47:55.841Z,99.88
2018-10-18T19:50:24.626Z,99.79
2018-10-18T19:52:53.184Z,99.97
2018-10-18T19:55:21.733Z,100.00
2018-10-18T19:57:50.822Z,100.00
2018-10-18T20:00:19.711Z,100.00
2018-10-18T20:02:48.463Z,99.03
2018-10-18T20:05:17.060Z,97.11
2018-10-18T20:07:45.640Z,95.81
2018-10-18T20:10:14.442Z,97.74
2018-10-18T20:12:43.154Z,96.83
2018-10-18T20:15:14.023Z,97.98
2018-10-18T20:17:42.799Z,98.83
2018-10-18T20:20:11.549Z,99.08
2018-10-18T20:22:40.323Z,97.01
2018-10-18T20:25:09.779Z,96.83
2018-10-18T20:27:38.673Z,98.01
2018-10-18T20:30:11.131Z,96.73
2018-10-18T20:32:41.064Z,96.01
2018-10-18T20:35:10.430Z,96.20
2018-10-18T20:37:39.767Z,96.55
2018-10-18T20:40:10.683Z,97.36
2018-10-18T20:42:39.794Z,98.32
2018-10-18T20:45:09.318Z,98.70
2018-10-18T20:47:38.924Z,99.99
2018-10-18T20:50:07.566Z,100.00
2018-10-18T20:52:36.329Z,97.17
2018-10-18T20:55:06.191Z,96.24
2018-10-18T20:57:35.126Z,95.57
2018-10-18T21:00:03.890Z,97.53
2018-10-18T21:02:32.463Z,99.56
2018-10-18T21:05:01.155Z,100.00
2018-10-18T21:07:30.113Z,100.00
2018-10-18T21:09:59.190Z,100.00
2018-10-18T21:12:27.746Z,100.00
2018-10-18T21:14:56.343Z,100.00
2018-10-18T21:17:24.942Z,100.00
2018-10-18T21:19:53.771Z,100.00
2018-10-18T21:22:22.647Z,100.00
2018-10-18T21:24:51.427Z,100.00
2018-10-18T21:27:20.083Z,100.00
2018-10-18T21:29:48.681Z,100.00
2018-10-18T21:32:17.422Z,100.00
2018-10-18T21:34:46.380Z,100.00
2018-10-18T21:37:15.468Z,100.00
2018-10-18T21:39:44.237Z,100.00
2018-10-18T21:42:13.283Z,100.00
2018-10-18T21:44:42.103Z,100.00
2018-10-18T21:47:12.289Z,100.00
2018-10-18T21:49:40.748Z,100.00
2018-10-18T21:52:09.332Z,100.00
2018-10-18T21:54:39.027Z,100.00
2018-10-18T21:57:07.973Z,100.00
2018-10-18T21:59:36.626Z,100.00
2018-10-18T22:02:05.618Z,100.00
2018-10-18T22:04:34.686Z,100.00
2018-10-18T22:07:03.433Z,100.00
2018-10-18T22:09:32.110Z,100.00
2018-10-18T22:12:00.843Z,100.00
2018-10-18T22:14:29.381Z,100.00
2018-10-18T22:16:58.208Z,100.00
2018-10-18T22:19:27.411Z,100.00
2018-10-18T22:21:56.021Z,100.00
2018-10-18T22:24:24.594Z,100.00
2018-10-18T22:26:53.171Z,100.00
2018-10-18T22:29:21.740Z,100.00
2018-10-18T22:31:50.298Z,100.00
2018-10-18T22:34:18.935Z,100.00
2018-10-18T22:36:47.482Z,100.00
2018-10-18T22:39:16.746Z,100.00
2018-10-18T22:41:45.296Z,100.00
2018-10-18T22:44:14.147Z,100.00
2018-10-18T22:46:42.785Z,100.00
2018-10-18T22:49:11.634Z,100.00
2018-10-18T22:51:41.221Z,100.00
2018-10-18T22:54:09.725Z,100.00
2018-10-18T22:56:38.797Z,100.00
2018-10-18T22:59:07.393Z,100.00
2018-10-18T23:01:35.941Z,100.00
2018-10-18T23:04:04.604Z,100.00
2018-10-18T23:06:33.159Z,100.00
2018-10-18T23:09:01.880Z,100.00
2018-10-18T23:11:30.496Z,100.00
2018-10-18T23:13:59.185Z,100.00
2018-10-18T23:16:27.847Z,100.00
2018-10-18T23:18:56.467Z,100.00
2018-10-18T23:21:25.258Z,100.00
2018-10-18T23:23:54.034Z,100.00
2018-10-18T23:26:24.058Z,100.00
2018-10-18T23:28:52.646Z,100.00
2018-10-18T23:31:21.189Z,100.00
2018-10-18T23:33:49.828Z,100.00
2018-10-18T23:36:19.034Z,100.00
2018-10-18T23:38:47.583Z,100.00
2018-10-18T23:41:16.231Z,100.00
2018-10-18T23:43:45.651Z,100.00
2018-10-18T23:46:14.401Z,100.00
2018-10-18T23:48:42.913Z,100.00
2018-10-18T23:51:11.642Z,99.57
2018-10-18T23:53:40.370Z,99.83
2018-10-18T23:56:09.739Z,99.89
2018-10-18T23:58:39.285Z,98.98
